Acosta, Argentina
Current Conditions -  °F | °C
As of 8:00 AM on Saturday 25 Oct 2014 (Local Time) from SASA Reporting Station
Clear Clear  
Wind Chill: 20°   Ceiling: Unl
Heat Index: 20°   Visibility: 6mi
Dew Point: 15°   Wind: 0mph
Humidity: 73%   Direction: NA
Pressure: 30.12"   Gusts: NA
Location:  25.59°S, 65.46°W
Report Text: SASA 251100Z 00000KT CAVOK 20/15 Q1020
Loading
Personal Weather Stations






























Interactive Weather Map
Tropical Storm Tracking
New forecast layout! Learn more

10-Day Weather Forecast

Advertisements
Track Severe Weather on mobile